createdAt,value
2019-03-15T00:01:36.883Z,98.80
2019-03-15T00:06:28.189Z,98.60
2019-03-15T00:11:19.650Z,98.60
2019-03-15T00:16:10.944Z,97.40
2019-03-15T00:21:02.340Z,95.90
2019-03-15T00:25:56.298Z,95.70
2019-03-15T00:30:45.193Z,95.70
2019-03-15T00:35:36.520Z,96.20
2019-03-15T00:40:30.121Z,97.10
2019-03-15T00:45:21.627Z,97.50
2019-03-15T00:50:13.236Z,97.90
2019-03-15T00:55:04.395Z,97.60
2019-03-15T00:59:55.771Z,97.90
2019-03-15T01:04:47.144Z,99.10
2019-03-15T01:09:38.612Z,99.20
2019-03-15T01:14:30.005Z,99.50
2019-03-15T01:19:21.412Z,99.60
2019-03-15T01:24:15.018Z,98.50
2019-03-15T01:29:06.479Z,97.90
2019-03-15T01:33:57.835Z,97.80
2019-03-15T01:38:49.168Z,96.30
2019-03-15T01:43:40.625Z,95.80
2019-03-15T01:48:31.972Z,95.90
2019-03-15T01:53:24.089Z,95.60
2019-03-15T01:58:17.006Z,95.20
2019-03-15T02:03:08.408Z,94.90
2019-03-15T02:08:01.124Z,93.90
2019-03-15T02:12:51.189Z,92.90
2019-03-15T02:17:44.848Z,92.70
2019-03-15T02:22:36.388Z,91.70
2019-03-15T02:27:30.014Z,92.30
2019-03-15T02:32:21.510Z,92.40
2019-03-15T02:37:12.893Z,91.50
2019-03-15T02:42:04.315Z,91.90
2019-03-15T02:46:57.969Z,91.00
2019-03-15T02:51:50.441Z,91.60
2019-03-15T03:01:36.660Z,97.60
2019-03-15T03:06:29.265Z,99.20
2019-03-15T03:11:19.573Z,99.90
2019-03-15T03:16:10.870Z,99.90
2019-03-15T03:21:02.711Z,99.90
2019-03-15T03:25:53.654Z,99.90
2019-03-15T03:30:47.571Z,99.90
2019-03-15T03:35:38.699Z,99.90
2019-03-15T03:40:30.204Z,99.90
2019-03-15T03:45:23.871Z,99.90
2019-03-15T03:50:15.282Z,99.90
2019-03-15T03:55:06.604Z,99.90
2019-03-15T03:59:57.949Z,99.90
2019-03-15T04:04:49.398Z,99.90
2019-03-15T04:09:40.787Z,99.90
2019-03-15T04:14:32.097Z,99.90
2019-03-15T04:19:24.762Z,99.90
2019-03-15T04:24:17.179Z,99.90
2019-03-15T04:29:08.637Z,99.90
2019-03-15T04:34:00.043Z,99.90
2019-03-15T04:38:53.634Z,99.90
2019-03-15T04:43:45.061Z,99.90
2019-03-15T04:48:36.500Z,99.90
2019-03-15T04:53:27.893Z,99.90
2019-03-15T04:58:19.255Z,99.90
2019-03-15T05:03:10.648Z,99.90
2019-03-15T05:08:02.091Z,99.90
2019-03-15T05:12:53.406Z,99.90
2019-03-15T05:17:44.840Z,99.90
2019-03-15T05:22:36.177Z,99.90
2019-03-15T05:27:27.800Z,99.90
2019-03-15T05:32:21.220Z,99.90
2019-03-15T05:37:12.701Z,99.90
2019-03-15T05:42:06.269Z,99.90
2019-03-15T05:46:57.712Z,99.90
2019-03-15T05:51:49.207Z,99.90
2019-03-15T05:56:40.511Z,99.90
2019-03-15T06:01:31.855Z,99.90
2019-03-15T06:06:23.287Z,99.90
2019-03-15T06:11:14.753Z,99.90
2019-03-15T06:16:10.765Z,99.90
2019-03-15T06:21:02.257Z,99.90
2019-03-15T06:25:53.628Z,99.90
2019-03-15T06:30:45.102Z,99.90
2019-03-15T06:35:36.503Z,99.90
2019-03-15T06:40:32.457Z,99.90
2019-03-15T06:45:26.063Z,99.90
2019-03-15T06:50:17.493Z,99.90
2019-03-15T06:55:08.907Z,99.90
2019-03-15T07:00:00.558Z,99.90
2019-03-15T07:04:51.683Z,99.90
2019-03-15T07:09:45.389Z,99.90
2019-03-15T07:14:36.821Z,99.90
2019-03-15T07:19:31.187Z,99.90
2019-03-15T07:24:26.016Z,99.90
2019-03-15T07:29:11.074Z,99.90
2019-03-15T07:34:02.538Z,99.90
2019-03-15T07:38:53.964Z,99.90
2019-03-15T07:43:50.369Z,99.90
2019-03-15T07:48:36.672Z,99.90
2019-03-15T07:53:28.084Z,99.90
2019-03-15T07:58:19.519Z,99.90
2019-03-15T08:03:10.896Z,99.90
2019-03-15T08:08:04.438Z,99.90
2019-03-15T08:12:56.000Z,99.90
2019-03-15T08:17:49.554Z,99.90
2019-03-15T08:22:43.288Z,99.90
2019-03-15T08:27:34.879Z,99.90
2019-03-15T08:32:26.181Z,99.90
2019-03-15T08:37:17.903Z,99.90
2019-03-15T08:42:09.344Z,99.90
2019-03-15T08:47:00.658Z,99.90
2019-03-15T08:52:04.541Z,99.90
2019-03-15T08:56:44.541Z,99.90
2019-03-15T09:01:34.824Z,99.90
2019-03-15T09:06:26.228Z,99.90
2019-03-15T09:11:17.600Z,99.90
2019-03-15T09:16:09.059Z,99.90
2019-03-15T09:21:00.411Z,99.90
2019-03-15T09:25:51.784Z,99.90
2019-03-15T09:30:43.139Z,99.90
2019-03-15T09:35:36.791Z,99.90
2019-03-15T09:40:28.277Z,99.90
2019-03-15T09:45:19.614Z,99.90
2019-03-15T09:50:40.303Z,99.90
2019-03-15T09:55:02.443Z,99.90
2019-03-15T09:59:53.787Z,99.90
2019-03-15T10:04:45.219Z,99.90
2019-03-15T10:09:46.766Z,99.90
2019-03-15T10:14:30.167Z,99.90
2019-03-15T10:19:21.669Z,99.90
2019-03-15T10:24:16.288Z,99.90
2019-03-15T10:29:19.620Z,99.90
2019-03-15T10:33:55.873Z,99.90
2019-03-15T10:38:47.219Z,99.90
2019-03-15T10:43:38.586Z,99.90
2019-03-15T10:48:29.971Z,99.90
2019-03-15T10:53:21.407Z,99.90
2019-03-15T10:58:12.712Z,99.90
2019-03-15T11:03:04.116Z,99.90
2019-03-15T11:07:55.590Z,99.90
2019-03-15T11:12:47.005Z,99.90
2019-03-15T11:17:38.464Z,99.90
2019-03-15T11:22:29.789Z,99.90
2019-03-15T11:27:21.286Z,96.50
2019-03-15T11:32:12.585Z,97.70
2019-03-15T11:37:04.246Z,98.20
2019-03-15T11:41:55.349Z,94.60
2019-03-15T11:46:46.873Z,95.80
2019-03-15T11:51:38.146Z,93.70
2019-03-15T11:56:29.464Z,95.00
2019-03-15T12:01:20.920Z,93.70
2019-03-15T12:06:12.256Z,90.90
2019-03-15T12:11:03.658Z,91.30
2019-03-15T12:15:57.262Z,94.40
2019-03-15T12:20:49.888Z,92.80
2019-03-15T12:25:40.173Z,94.10
2019-03-15T12:30:31.753Z,93.20
2019-03-15T12:35:22.940Z,92.10
2019-03-15T12:40:14.385Z,93.30
2019-03-15T12:45:07.955Z,92.80
2019-03-15T12:49:59.376Z,93.60
2019-03-15T12:54:50.748Z,93.50
2019-03-15T12:59:44.400Z,92.50
2019-03-15T13:04:35.882Z,93.10
2019-03-15T13:09:27.228Z,92.20
2019-03-15T13:14:18.672Z,92.70
2019-03-15T13:19:10.038Z,90.70
2019-03-15T13:24:01.446Z,90.00
2019-03-15T13:28:52.862Z,90.80
2019-03-15T13:33:44.250Z,88.50
2019-03-15T13:38:35.593Z,84.60
2019-03-15T13:43:26.959Z,82.80
2019-03-15T13:48:18.412Z,83.60
2019-03-15T13:53:09.743Z,83.30
2019-03-15T13:58:01.201Z,82.30
2019-03-15T14:02:52.564Z,82.10
2019-03-15T14:07:43.899Z,81.50
2019-03-15T14:12:35.338Z,81.60
2019-03-15T14:17:26.722Z,84.50
2019-03-15T14:22:18.090Z,82.60
2019-03-15T14:27:09.562Z,81.90
2019-03-15T14:32:00.891Z,82.40
2019-03-15T14:41:51.252Z,82.50
2019-03-15T14:46:42.185Z,81.00
2019-03-15T14:51:33.563Z,82.70
2019-03-15T14:56:29.443Z,79.80
2019-03-15T15:01:20.879Z,80.50
2019-03-15T15:06:14.514Z,83.90
2019-03-15T15:11:06.009Z,81.40
2019-03-15T15:15:57.429Z,81.80
2019-03-15T15:20:50.968Z,80.90
2019-03-15T15:25:42.526Z,80.10
2019-03-15T15:30:33.886Z,81.00
2019-03-15T15:35:25.254Z,80.00
2019-03-15T15:40:16.631Z,80.90
2019-03-15T15:45:08.144Z,81.00
2019-03-15T15:49:59.449Z,81.00
2019-03-15T15:54:50.872Z,79.60
2019-03-15T15:59:42.270Z,80.00
2019-03-15T16:04:33.646Z,81.10
2019-03-15T16:09:25.059Z,80.10
2019-03-15T16:14:16.404Z,81.50
2019-03-15T16:19:07.989Z,82.10
2019-03-15T16:23:59.216Z,82.40
2019-03-15T16:28:50.581Z,85.40
2019-03-15T16:33:42.007Z,85.70
2019-03-15T16:38:33.438Z,84.70
2019-03-15T16:43:24.908Z,85.60
2019-03-15T16:48:16.290Z,85.70
2019-03-15T16:53:09.902Z,84.50
2019-03-15T16:58:01.347Z,84.40
2019-03-15T17:02:52.821Z,83.10
2019-03-15T17:07:44.171Z,82.90
2019-03-15T17:12:35.871Z,81.70
2019-03-15T17:17:26.924Z,82.50
2019-03-15T17:22:18.412Z,83.50
2019-03-15T17:27:09.717Z,84.00
2019-03-15T17:32:01.150Z,84.20
2019-03-15T17:37:07.357Z,84.20
2019-03-15T17:41:44.031Z,84.60
2019-03-15T17:46:35.775Z,85.00
2019-03-15T17:51:26.755Z,83.40
2019-03-15T17:56:18.470Z,85.10
2019-03-15T18:01:09.649Z,83.90
2019-03-15T18:06:01.015Z,83.70
2019-03-15T18:10:52.351Z,84.20
2019-03-15T18:15:45.950Z,85.00
2019-03-15T18:20:37.438Z,85.00
2019-03-15T18:25:28.882Z,84.40
2019-03-15T18:30:20.231Z,83.80
2019-03-15T18:35:11.587Z,84.10
2019-03-15T18:40:05.382Z,84.50
2019-03-15T18:44:56.742Z,81.40
2019-03-15T18:49:48.152Z,79.50
2019-03-15T18:54:41.777Z,79.10
2019-03-15T18:59:40.882Z,78.40
2019-03-15T19:04:24.568Z,77.30
2019-03-15T19:09:16.320Z,76.80
2019-03-15T19:14:07.365Z,77.20
2019-03-15T19:19:01.002Z,77.00
2019-03-15T19:23:52.414Z,76.90
2019-03-15T19:28:43.843Z,77.20
2019-03-15T19:33:37.467Z,75.60
2019-03-15T19:38:31.132Z,76.70
2019-03-15T19:43:22.638Z,77.10
2019-03-15T19:48:14.040Z,77.40
2019-03-15T19:53:07.714Z,77.80
2019-03-15T19:57:59.203Z,79.60
2019-03-15T20:02:50.649Z,82.10
2019-03-15T20:07:42.250Z,84.90
2019-03-15T20:12:33.393Z,88.10
2019-03-15T20:17:24.729Z,91.30
2019-03-15T20:22:16.167Z,93.00
2019-03-15T20:27:07.516Z,95.00
2019-03-15T20:31:58.880Z,94.60
2019-03-15T20:36:50.264Z,94.30
2019-03-15T20:41:41.595Z,95.00
2019-03-15T20:46:36.647Z,97.20
2019-03-15T20:51:26.812Z,97.80
2019-03-15T20:56:18.297Z,96.60
2019-03-15T21:01:09.680Z,98.20
2019-03-15T21:06:01.076Z,99.00
2019-03-15T21:10:52.488Z,97.90
2019-03-15T21:15:43.837Z,98.30
2019-03-15T21:20:35.258Z,97.90
2019-03-15T21:25:26.684Z,95.80
2019-03-15T21:30:18.016Z,95.80
2019-03-15T21:35:09.441Z,96.20
2019-03-15T21:40:00.896Z,95.70
2019-03-15T21:44:52.238Z,95.20
2019-03-15T21:49:45.916Z,95.90
2019-03-15T21:54:37.410Z,95.40
2019-03-15T21:59:28.702Z,96.40
2019-03-15T22:04:20.245Z,97.40
2019-03-15T22:09:13.749Z,99.00
2019-03-15T22:14:05.269Z,97.70
2019-03-15T22:18:56.640Z,98.80
2019-03-15T22:23:48.005Z,99.60
2019-03-15T22:28:39.447Z,98.60
2019-03-15T22:33:30.805Z,97.50
2019-03-15T22:38:27.159Z,97.60
2019-03-15T22:43:13.522Z,96.20
2019-03-15T22:48:05.085Z,97.00
2019-03-15T22:52:58.600Z,97.70
2019-03-15T22:58:00.567Z,98.20
2019-03-15T23:02:41.542Z,97.00
2019-03-15T23:07:35.003Z,98.70
2019-03-15T23:12:26.473Z,97.70
2019-03-15T23:17:22.325Z,98.60
2019-03-15T23:22:20.588Z,98.70
2019-03-15T23:27:12.067Z,98.40
2019-03-15T23:32:03.482Z,97.20
2019-03-15T23:36:54.847Z,97.90
2019-03-15T23:41:48.427Z,98.60
2019-03-15T23:46:39.887Z,97.10
2019-03-15T23:51:31.256Z,97.10
2019-03-15T23:56:22.744Z,97.10
